Time;durP1;ratioP1;P1;durP2;ratioP2;P2;SDS_P1;SDS_P2;PMS_P1;PMS_P2;Temp;Humidity;BMP_temperature;BMP_pressure;BME280_temperature;BME280_humidity;BME280_pressure;Samples;Min_cycle;Max_cycle;Signal;HPM_P1;HPM_P2
2023/07/13 00:00:30;;;;;;;2.80;1.20;;;;;;;13.18;100.00;100273.42;105365;1256;60614;-62
2023/07/13 00:02:58;;;;;;;2.80;1.30;;;;;;;13.19;100.00;100272.10;105591;1253;60497;-62
2023/07/13 00:05:27;;;;;;;4.30;1.70;;;;;;;13.17;100.00;100270.33;105430;1253;71921;-63
2023/07/13 00:07:55;;;;;;;1.90;1.00;;;;;;;13.15;100.00;100271.54;105269;1258;65806;-62
2023/07/13 00:10:23;;;;;;;2.60;1.20;;;;;;;13.13;100.00;100262.83;105388;1253;72311;-64
2023/07/13 00:12:54;;;;;;;2.20;1.10;;;;;;;13.12;100.00;100263.48;104959;1255;59638;-63
2023/07/13 00:15:24;;;;;;;1.90;1.00;;;;;;;13.10;100.00;100264.32;105473;1253;59731;-65
2023/07/13 00:17:53;;;;;;;3.40;1.30;;;;;;;13.06;100.00;100265.20;105365;1253;71449;-63
2023/07/13 00:20:22;;;;;;;2.50;1.20;;;;;;;12.99;100.00;100266.02;105367;1253;67096;-66
2023/07/13 00:30:35;;;;;;;4.60;1.40;;;;;;;12.77;100.00;100277.53;101935;1294;601567;-62
2023/07/13 00:33:03;;;;;;;2.00;1.00;;;;;;;12.70;100.00;100276.21;104564;1266;61674;-65
2023/07/13 00:35:43;;;;;;;2.90;1.10;;;;;;;12.69;100.00;100278.55;104338;1266;60107;-65
2023/07/13 00:38:12;;;;;;;3.30;1.60;;;;;;;12.65;100.00;100277.29;104327;1269;72826;-61
2023/07/13 00:40:40;;;;;;;3.30;1.20;;;;;;;12.61;100.00;100281.02;104133;1266;66057;-62
2023/07/13 00:43:16;;;;;;;3.40;1.50;;;;;;;12.59;100.00;100282.42;105040;1263;196758;-62
2023/07/13 00:45:44;;;;;;;2.00;0.90;;;;;;;12.56;100.00;100283.77;104926;1254;61695;-63
2023/07/13 00:48:13;;;;;;;4.20;1.60;;;;;;;12.57;100.00;100282.68;105420;1257;60584;-62
2023/07/13 00:50:41;;;;;;;2.10;1.10;;;;;;;12.58;100.00;100285.98;105705;1260;71027;-65
2023/07/13 00:53:09;;;;;;;2.20;1.20;;;;;;;12.62;100.00;100284.48;105385;1257;67844;-61
2023/07/13 00:55:37;;;;;;;3.10;1.50;;;;;;;12.66;100.00;100281.88;105745;1257;72749;-64
2023/07/13 00:58:06;;;;;;;3.20;1.50;;;;;;;12.67;100.00;100282.23;105186;1259;62309;-65
2023/07/13 01:00:35;;;;;;;3.40;1.60;;;;;;;12.66;100.00;100287.35;105253;1257;60050;-63
2023/07/13 01:03:04;;;;;;;3.10;1.50;;;;;;;12.65;100.00;100288.75;105055;1259;73093;-63
2023/07/13 01:05:33;;;;;;;2.90;1.50;;;;;;;12.62;100.00;100289.98;105439;1254;66992;-66
2023/07/13 01:08:01;;;;;;;3.00;1.60;;;;;;;12.57;100.00;100289.81;105319;1257;72729;-64
2023/07/13 01:10:29;;;;;;;2.90;1.50;;;;;;;12.49;100.00;100287.20;105377;1254;60502;-62
2023/07/13 01:12:57;;;;;;;4.20;1.60;;;;;;;12.40;100.00;100288.81;105567;1256;59734;-65
2023/07/13 01:15:39;;;;;;;4.60;1.50;;;;;;;12.35;100.00;100291.65;105058;1262;73705;-61
2023/07/13 01:18:09;;;;;;;2.60;1.50;;;;;;;12.34;100.00;100287.92;105299;1266;65932;-62
2023/07/13 01:20:37;;;;;;;3.70;1.40;;;;;;;12.33;100.00;100289.13;105546;1258;72751;-64
2023/07/13 01:23:06;;;;;;;2.90;1.30;;;;;;;12.32;100.00;100292.60;105417;1254;62196;-62
2023/07/13 01:25:35;;;;;;;3.40;1.20;;;;;;;12.33;100.00;100289.70;105521;1253;60347;-63
2023/07/13 01:28:04;;;;;;;3.60;1.40;;;;;;;12.34;100.00;100291.98;105404;1256;73073;-62
2023/07/13 01:30:32;;;;;;;3.20;1.20;;;;;;;12.35;100.00;100293.89;105090;1254;67037;-66
2023/07/13 01:33:01;;;;;;;3.40;1.60;;;;;;;12.37;100.00;100301.30;105146;1257;73100;-62
2023/07/13 01:35:30;;;;;;;2.80;1.40;;;;;;;12.40;100.00;100301.20;105461;1256;59718;-66
2023/07/13 01:37:57;;;;;;;3.60;1.50;;;;;;;12.43;100.00;100301.42;105302;1257;60513;-63
2023/07/13 01:40:26;;;;;;;3.80;1.50;;;;;;;12.43;100.00;100307.77;105837;1254;73069;-65
2023/07/13 01:42:54;;;;;;;3.50;1.30;;;;;;;12.44;100.00;100312.96;105639;1255;68492;-64
2023/07/13 01:45:23;;;;;;;4.00;1.50;;;;;;;12.44;100.00;100317.31;105168;1259;72721;-66
2023/07/13 01:47:50;;;;;;;6.20;1.50;;;;;;;12.43;100.00;100322.93;105384;1259;61710;-62
2023/07/13 01:50:18;;;;;;;4.40;1.90;;;;;;;12.43;100.00;100325.55;105317;1254;60080;-63
2023/07/13 01:52:46;;;;;;;2.30;1.30;;;;;;;12.45;100.00;100328.08;105323;1255;73662;-64
2023/07/13 01:55:14;;;;;;;2.10;0.80;;;;;;;12.48;100.00;100331.73;105613;1253;64913;-66
2023/07/13 01:57:43;;;;;;;5.90;1.30;;;;;;;12.50;100.00;100324.09;105297;1257;73236;-63
2023/07/13 02:00:11;;;;;;;2.70;1.50;;;;;;;12.52;100.00;100328.89;105222;1258;60413;-64
2023/07/13 02:02:42;;;;;;;2.70;1.40;;;;;;;12.59;100.00;100331.17;105778;1266;60318;-66
2023/07/13 02:05:13;;;;;;;2.70;1.40;;;;;;;12.77;100.00;100325.77;105534;1254;73118;-66
2023/07/13 02:07:41;;;;;;;3.50;1.50;;;;;;;13.06;100.00;100324.17;104966;1255;67601;-63
2023/07/13 02:10:10;;;;;;;3.20;1.40;;;;;;;13.39;100.00;100327.55;105352;1253;71775;-64
2023/07/13 02:12:38;;;;;;;3.00;1.40;;;;;;;13.76;100.00;100330.39;105403;1255;60471;-67
2023/07/13 02:15:06;;;;;;;5.70;1.90;;;;;;;14.17;100.00;100327.84;105754;1253;60072;-70
2023/07/13 02:17:35;;;;;;;4.40;2.30;;;;;;;14.60;100.00;100320.70;105360;1253;71942;-63
2023/07/13 02:20:04;;;;;;;4.00;2.40;;;;;;;15.07;100.00;100309.65;105544;1254;64765;-64
2023/07/13 02:22:32;;;;;;;3.20;2.00;;;;;;;15.58;100.00;100305.83;105306;1257;72714;-68
2023/07/13 02:25:00;;;;;;;5.10;1.90;;;;;;;16.10;100.00;100300.12;105125;1259;60129;-63
2023/07/13 02:27:28;;;;;;;3.00;1.50;;;;;;;16.59;100.00;100295.53;105421;1257;60014;-66
2023/07/13 02:29:55;;;;;;;4.10;1.50;;;;;;;17.11;100.00;100292.64;105760;1258;73054;-62
2023/07/13 02:32:25;;;;;;;2.90;1.40;;;;;;;17.67;100.00;100289.14;105275;1254;66941;-62
2023/07/13 02:34:53;;;;;;;12.40;5.60;;;;;;;18.23;100.00;100284.58;105273;1257;73144;-63
2023/07/13 02:37:21;;;;;;;11.50;6.90;;;;;;;18.79;100.00;100279.30;105262;1259;59676;-62
2023/07/13 02:39:49;;;;;;;86.80;49.80;;;;;;;19.38;100.00;100274.55;105345;1257;59729;-63
2023/07/13 02:42:17;;;;;;;174.70;99.70;;;;;;;20.01;100.00;100268.66;105337;1254;73560;-62
2023/07/13 02:44:45;;;;;;;109.70;84.50;;;;;;;20.54;100.00;100270.59;105402;1258;66786;-62
2023/07/13 02:47:13;;;;;;;134.60;81.20;;;;;;;20.99;100.00;100269.14;105510;1265;72726;-66
2023/07/13 02:49:40;;;;;;;232.40;173.60;;;;;;;21.39;100.00;100273.26;105282;1256;59721;-61
2023/07/13 02:52:08;;;;;;;259.30;212.90;;;;;;;21.69;100.00;100274.47;105297;1254;60024;-61
2023/07/13 02:54:36;;;;;;;174.10;156.80;;;;;;;21.93;100.00;100282.36;105500;1257;73222;-65
2023/07/13 02:57:04;;;;;;;215.10;195.00;;;;;;;22.30;100.00;100277.09;105232;1255;65720;-62
2023/07/13 03:07:17;;;;;;;17.60;16.40;;;;;;;23.73;100.00;100280.86;102403;1286;601076;-62
2023/07/13 03:09:46;;;;;;;8.90;8.20;;;;;;;24.25;100.00;100279.33;104502;1270;60101;-62
2023/07/13 03:12:14;;;;;;;3.20;1.90;;;;;;;24.79;97.41;100276.60;104491;1265;60016;-64
2023/07/13 03:14:42;;;;;;;2.90;1.70;;;;;;;25.32;88.39;100276.60;104684;1271;72880;-62
2023/07/13 03:24:56;;;;;;;3.00;1.50;;;;;;;26.62;64.84;100286.33;102138;1289;600394;-63
2023/07/13 03:27:24;;;;;;;2.50;1.80;;;;;;;26.88;60.86;100288.27;104481;1270;60662;-62
2023/07/13 03:29:52;;;;;;;3.70;1.60;;;;;;;27.07;59.15;100290.55;104499;1267;60055;-62
2023/07/13 03:32:19;;;;;;;2.20;1.60;;;;;;;27.37;57.40;100293.80;104993;1257;71009;-66
2023/07/13 03:34:47;;;;;;;2.80;1.20;;;;;;;27.78;55.14;100292.23;104782;1257;65521;-62
2023/07/13 03:37:15;;;;;;;4.00;1.80;;;;;;;28.22;51.28;100298.23;105072;1265;72698;-65
2023/07/13 03:39:44;;;;;;;2.40;1.40;;;;;;;28.50;48.43;100294.67;105028;1258;224615;-63
2023/07/13 03:42:12;;;;;;;3.50;1.60;;;;;;;28.71;46.93;100299.48;104822;1255;60066;-65
2023/07/13 03:44:40;;;;;;;3.50;1.70;;;;;;;28.95;45.55;100303.39;104958;1257;71449;-63
2023/07/13 03:54:53;;;;;;;3.30;1.80;;;;;;;29.78;41.03;100309.69;102079;1290;601101;-63
2023/07/13 03:57:22;;;;;;;3.10;1.70;;;;;;;30.00;40.93;100308.22;107001;1269;59330;-63
2023/07/13 03:59:51;;;;;;;2.60;1.60;;;;;;;30.44;40.08;100310.09;104645;1269;60029;-63
2023/07/13 04:02:18;;;;;;;3.60;1.90;;;;;;;30.78;38.68;100310.47;104871;1264;71139;-62
2023/07/13 04:04:46;;;;;;;3.30;1.50;;;;;;;31.21;38.09;100315.11;104688;1264;66759;-62
2023/07/13 04:07:14;;;;;;;3.70;1.50;;;;;;;31.62;36.77;100313.16;104725;1264;72607;-67
2023/07/13 04:09:42;;;;;;;2.90;1.70;;;;;;;31.92;35.73;100319.46;104499;1264;214339;-63
2023/07/13 04:12:10;;;;;;;3.10;1.80;;;;;;;32.29;35.00;100313.73;104780;1264;60072;-63
2023/07/13 04:14:38;;;;;;;2.40;1.60;;;;;;;32.57;33.20;100314.41;104815;1264;71020;-63
2023/07/13 04:17:06;;;;;;;2.40;1.40;;;;;;;32.58;32.82;100316.84;104814;1268;59246;-64
2023/07/13 04:19:34;;;;;;;2.20;1.50;;;;;;;32.63;32.55;100319.59;104212;1267;71489;-65
2023/07/13 04:22:01;;;;;;;2.50;1.50;;;;;;;32.71;32.51;100322.64;108535;1263;58917;-63
2023/07/13 04:24:29;;;;;;;2.50;1.40;;;;;;;32.81;32.49;100324.52;104775;1264;59634;-63
2023/07/13 04:26:59;;;;;;;2.30;1.30;;;;;;;33.03;32.47;100326.88;104645;1264;62928;-63
2023/07/13 04:29:27;;;;;;;2.50;1.40;;;;;;;33.33;31.93;100336.48;104927;1264;65707;-66
2023/07/13 04:31:54;;;;;;;4.00;2.00;;;;;;;33.49;31.51;100338.75;104416;1268;64274;-63
2023/07/13 04:34:23;;;;;;;3.90;1.70;;;;;;;33.73;31.55;100341.62;104635;1269;59745;-63
2023/07/13 04:36:52;;;;;;;3.30;1.40;;;;;;;34.04;31.20;100334.37;104754;1266;59513;-63
2023/07/13 04:39:20;;;;;;;4.40;1.50;;;;;;;34.17;30.52;100338.61;104918;1268;73165;-64
2023/07/13 04:41:48;;;;;;;3.00;1.60;;;;;;;34.17;30.58;100336.16;104688;1264;59240;-63
2023/07/13 04:44:16;;;;;;;2.80;1.80;;;;;;;34.28;30.51;100334.95;104757;1264;63818;-63
2023/07/13 04:46:44;;;;;;;3.00;1.60;;;;;;;34.44;30.72;100332.17;104704;1269;59726;-62
2023/07/13 04:49:12;;;;;;;2.50;1.80;;;;;;;34.73;30.56;100331.65;105067;1263;59717;-66
2023/07/13 04:51:40;;;;;;;3.00;1.70;;;;;;;35.03;30.13;100334.95;104966;1263;64735;-63
2023/07/13 04:54:08;;;;;;;5.50;2.30;;;;;;;35.33;29.73;100328.45;104665;1265;59599;-63
2023/07/13 04:56:35;;;;;;;1.90;1.40;;;;;;;35.63;28.73;100329.01;104620;1270;63970;-63
2023/07/13 04:59:03;;;;;;;1.70;1.30;;;;;;;35.81;28.06;100331.00;104609;1269;59720;-63
2023/07/13 05:01:31;;;;;;;2.20;1.50;;;;;;;35.96;27.69;100328.16;104829;1268;59947;-66
2023/07/13 05:04:00;;;;;;;1.80;1.30;;;;;;;36.11;27.40;100323.48;104794;1267;62893;-63
2023/07/13 05:06:28;;;;;;;2.80;1.30;;;;;;;36.22;27.06;100319.15;104633;1264;59884;-62
2023/07/13 05:08:56;;;;;;;2.20;1.60;;;;;;;36.31;27.02;100318.77;104646;1269;62520;-62
2023/07/13 05:11:24;;;;;;;3.20;1.70;;;;;;;36.48;26.99;100322.26;105317;1263;59576;-65
2023/07/13 05:13:51;;;;;;;2.90;1.80;;;;;;;36.76;26.64;100319.66;105003;1261;59704;-62
2023/07/13 05:16:19;;;;;;;4.00;2.30;;;;;;;37.02;26.19;100313.02;105212;1262;62900;-64
2023/07/13 05:18:47;;;;;;;5.00;2.20;;;;;;;37.24;26.09;100317.14;105094;1258;59727;-63
2023/07/13 05:21:14;;;;;;;3.00;2.00;;;;;;;37.44;25.85;100320.21;105430;1263;63715;-64
2023/07/13 05:23:43;;;;;;;2.70;1.80;;;;;;;37.63;25.49;100319.29;104711;1263;59888;-63
2023/07/13 05:26:10;;;;;;;3.40;2.00;;;;;;;37.79;25.36;100320.16;105047;1260;59262;-63
2023/07/13 05:28:38;;;;;;;2.90;2.00;;;;;;;37.83;24.65;100319.43;105163;1257;64050;-62
2023/07/13 05:31:09;;;;;;;2.40;1.80;;;;;;;37.74;24.56;100322.65;104996;1262;59746;-63
2023/07/13 05:33:38;;;;;;;4.30;2.20;;;;;;;37.74;24.80;100323.73;105178;1260;63221;-62
2023/07/13 05:36:07;;;;;;;2.90;1.90;;;;;;;37.89;24.69;100321.10;104978;1264;59720;-62
2023/07/13 05:38:34;;;;;;;2.80;1.90;;;;;;;37.93;24.64;100326.54;104995;1257;59653;-62
2023/07/13 05:41:02;;;;;;;2.60;1.80;;;;;;;37.91;24.50;100328.45;104963;1257;62938;-62
2023/07/13 05:43:33;;;;;;;2.40;2.10;;;;;;;37.78;24.55;100329.55;104884;1258;59850;-65
2023/07/13 05:46:01;;;;;;;3.00;1.80;;;;;;;37.65;24.55;100331.67;105039;1260;64379;-62
2023/07/13 05:48:28;;;;;;;2.30;1.80;;;;;;;37.63;24.65;100332.73;105132;1260;59587;-62
2023/07/13 05:50:56;;;;;;;3.30;2.20;;;;;;;37.62;24.58;100335.91;105086;1262;59628;-64
2023/07/13 05:53:24;;;;;;;3.30;2.00;;;;;;;37.67;24.63;100334.66;105045;1260;64736;-66
2023/07/13 05:55:53;;;;;;;3.20;2.20;;;;;;;37.72;24.70;100335.99;104975;1257;59703;-64
2023/07/13 05:58:21;;;;;;;2.80;2.10;;;;;;;37.84;25.03;100335.79;105070;1261;64256;-64
2023/07/13 06:00:58;;;;;;;2.40;2.00;;;;;;;38.14;24.78;100333.83;105140;1257;59710;-63
2023/07/13 06:03:26;;;;;;;2.80;1.60;;;;;;;38.44;24.34;100330.67;105200;1260;59691;-66
2023/07/13 06:05:54;;;;;;;2.70;2.00;;;;;;;38.66;24.11;100335.60;105253;1260;63004;-63
2023/07/13 06:08:22;;;;;;;2.80;2.00;;;;;;;38.72;24.23;100336.52;105092;1260;59540;-62
2023/07/13 06:10:50;;;;;;;3.70;1.80;;;;;;;38.71;24.29;100338.14;105105;1256;63789;-61
2023/07/13 06:13:19;;;;;;;3.30;2.30;;;;;;;38.75;23.89;100336.80;105667;1258;59681;-65
2023/07/13 06:15:50;;;;;;;2.50;1.90;;;;;;;38.84;24.20;100336.60;104907;1258;59672;-62
2023/07/13 06:18:18;;;;;;;2.20;1.60;;;;;;;38.90;24.15;100336.52;105164;1260;62926;-62
2023/07/13 06:20:45;;;;;;;2.60;2.00;;;;;;;38.84;23.19;100337.54;105023;1260;59602;-62
2023/07/13 06:23:13;;;;;;;2.50;1.90;;;;;;;38.32;23.49;100334.77;105100;1261;63044;-62
2023/07/13 06:25:41;;;;;;;2.50;2.10;;;;;;;37.98;24.13;100337.41;105233;1258;59687;-65
2023/07/13 06:28:09;;;;;;;2.70;1.80;;;;;;;38.12;24.28;100335.13;104921;1256;59570;-61
2023/07/13 06:30:39;;;;;;;2.30;2.10;;;;;;;38.39;24.22;100335.64;105104;1257;62900;-61
2023/07/13 06:33:07;;;;;;;;;;;;;;;38.58;23.67;100336.20;105099;1263;60935;-62
2023/07/13 06:35:34;;;;;;;2.10;1.70;;;;;;;38.51;23.06;100334.48;105131;1260;62504;-61
2023/07/13 06:38:02;;;;;;;2.00;1.50;;;;;;;38.11;23.85;100334.88;105158;1260;59759;-63
2023/07/13 06:40:31;;;;;;;3.30;1.50;;;;;;;37.90;24.02;100339.23;105157;1260;59612;-62
2023/07/13 06:42:58;;;;;;;2.00;1.40;;;;;;;37.64;23.20;100332.67;105084;1260;64217;-62
2023/07/13 06:45:26;;;;;;;1.80;1.30;;;;;;;37.23;23.02;100332.83;105424;1260;59097;-66
2023/07/13 06:47:54;;;;;;;3.90;2.20;;;;;;;36.85;23.24;100332.56;104817;1260;64530;-62
2023/07/13 06:50:22;;;;;;;2.50;1.50;;;;;;;36.57;23.94;100338.05;105109;1260;59621;-62
2023/07/13 06:52:50;;;;;;;1.80;1.20;;;;;;;36.41;23.93;100337.70;104952;1260;59621;-62
2023/07/13 06:55:18;;;;;;;2.90;1.40;;;;;;;36.30;23.95;100339.85;105094;1256;64182;-62
2023/07/13 06:57:46;;;;;;;2.00;1.20;;;;;;;36.21;24.45;100339.98;105352;1256;59604;-63
2023/07/13 07:00:14;;;;;;;3.70;1.20;;;;;;;36.20;24.65;100335.39;104799;1262;64368;-62
2023/07/13 07:02:42;;;;;;;1.50;1.00;;;;;;;36.24;25.48;100338.27;105144;1260;59630;-62
2023/07/13 07:05:11;;;;;;;1.90;1.10;;;;;;;36.43;25.10;100337.37;105170;1260;59732;-62
2023/07/13 07:07:38;;;;;;;2.40;1.20;;;;;;;36.56;24.66;100343.54;105201;1260;64230;-63
2023/07/13 07:10:07;;;;;;;2.30;0.90;;;;;;;36.62;24.39;100346.53;105096;1260;59701;-61
2023/07/13 07:12:35;;;;;;;1.60;1.00;;;;;;;36.64;24.16;100346.34;104986;1260;63794;-63
2023/07/13 07:15:03;;;;;;;2.10;1.40;;;;;;;36.75;24.14;100348.11;105036;1257;59688;-62
2023/07/13 07:17:31;;;;;;;1.80;1.10;;;;;;;36.82;23.60;100345.16;105026;1262;59544;-64
2023/07/13 07:19:59;;;;;;;2.60;1.00;;;;;;;36.71;23.20;100340.27;105303;1260;64251;-66
2023/07/13 07:22:27;;;;;;;2.20;1.10;;;;;;;36.65;24.04;100339.46;105084;1260;59608;-62
2023/07/13 07:24:55;;;;;;;2.30;0.90;;;;;;;36.69;23.52;100338.23;105108;1257;63786;-62
2023/07/13 07:27:24;;;;;;;1.60;1.10;;;;;;;36.57;23.23;100342.71;105074;1262;59736;-66
2023/07/13 07:29:54;;;;;;;2.30;1.20;;;;;;;36.42;23.40;100347.52;104948;1260;59714;-61
2023/07/13 07:32:43;;;;;;;3.20;1.20;;;;;;;36.30;22.64;100345.52;105262;1260;64112;-60
2023/07/13 07:35:13;;;;;;;2.90;1.30;;;;;;;36.19;23.43;100348.55;104931;1260;59665;-61
2023/07/13 07:37:41;;;;;;;2.70;1.00;;;;;;;36.16;23.30;100350.02;108059;1260;63824;-63
2023/07/13 07:40:12;;;;;;;2.30;1.10;;;;;;;36.06;23.27;100352.29;105556;1263;59753;-61
2023/07/13 07:42:42;;;;;;;1.90;1.20;;;;;;;36.02;23.65;100356.08;105478;1257;59595;-61
2023/07/13 07:45:11;;;;;;;4.10;1.20;;;;;;;35.99;23.99;100354.99;105544;1260;63320;-63
2023/07/13 07:47:39;;;;;;;2.00;1.10;;;;;;;36.00;23.78;100356.80;105729;1257;59823;-65
2023/07/13 07:50:07;;;;;;;2.50;1.30;;;;;;;35.93;22.81;100362.67;105337;1261;62503;-62
2023/07/13 07:52:35;;;;;;;2.30;1.20;;;;;;;35.81;22.85;100360.44;105451;1260;59679;-62
2023/07/13 07:55:04;;;;;;;2.00;1.20;;;;;;;35.78;23.82;100359.98;105615;1258;59707;-63
2023/07/13 07:57:35;;;;;;;1.40;1.00;;;;;;;35.78;23.73;100363.25;105524;1260;64205;-60
2023/07/13 08:07:51;;;;;;;1.50;1.10;;;;;;;35.96;22.82;100354.76;102570;1295;600550;-60
2023/07/13 08:10:19;;;;;;;2.30;1.00;;;;;;;35.72;22.27;100354.10;105172;1263;59273;-60
2023/07/13 08:12:46;;;;;;;2.60;1.50;;;;;;;35.43;22.62;100350.25;105300;1269;59212;-67
2023/07/13 08:15:17;;;;;;;3.20;1.30;;;;;;;35.40;22.97;100351.40;105178;1268;63394;-66
2023/07/13 08:17:49;;;;;;;2.50;1.60;;;;;;;35.43;22.58;100344.89;104933;1264;59261;-61
2023/07/13 08:20:18;;;;;;;1.80;1.20;;;;;;;35.49;22.81;100349.80;104611;1269;209489;-63
2023/07/13 08:22:46;;;;;;;2.00;1.20;;;;;;;35.63;22.85;100353.25;105146;1265;59301;-63
2023/07/13 08:25:14;;;;;;;2.40;1.60;;;;;;;35.81;22.54;100352.90;106075;1254;59220;-62
2023/07/13 08:27:41;;;;;;;3.00;1.00;;;;;;;35.99;22.32;100353.80;105877;1251;63820;-60
2023/07/13 08:30:10;;;;;;;2.10;1.20;;;;;;;36.10;22.57;100360.38;105752;1256;59291;-61
2023/07/13 08:32:37;;;;;;;3.30;1.60;;;;;;;36.19;22.12;100355.75;106074;1257;63867;-65
2023/07/13 08:35:06;;;;;;;4.40;1.50;;;;;;;36.23;22.26;100353.52;106093;1266;59615;-65
2023/07/13 08:37:34;;;;;;;2.30;1.50;;;;;;;36.36;22.40;100356.14;105721;1251;59724;-63
2023/07/13 08:40:03;;;;;;;2.40;1.40;;;;;;;36.48;22.12;100359.13;105861;1257;64442;-60
2023/07/13 08:42:46;;;;;;;2.90;1.40;;;;;;;36.55;21.98;100359.82;106080;1256;59499;-62
2023/07/13 08:45:19;;;;;;;2.10;1.20;;;;;;;36.44;22.40;100359.41;105926;1254;64378;-61
2023/07/13 08:47:54;;;;;;;3.30;1.60;;;;;;;36.27;22.47;100352.83;105918;1251;59637;-60
2023/07/13 08:50:26;;;;;;;2.80;1.40;;;;;;;36.17;22.45;100344.16;105925;1251;60046;-63
2023/07/13 08:52:53;;;;;;;1.90;1.30;;;;;;;36.02;22.43;100340.87;105647;1251;62900;-64
2023/07/13 08:55:25;;;;;;;3.80;1.60;;;;;;;35.93;22.85;100345.75;105491;1257;59526;-61
2023/07/13 08:58:06;;;;;;;2.10;1.40;;;;;;;35.91;22.73;100346.10;105684;1258;64164;-61
2023/07/13 09:00:43;;;;;;;2.20;1.50;;;;;;;35.85;22.37;100344.88;105802;1260;59656;-63
2023/07/13 09:03:20;;;;;;;2.00;1.40;;;;;;;35.79;22.28;100333.79;105790;1256;59659;-62
2023/07/13 09:05:51;;;;;;;2.90;1.90;;;;;;;35.67;22.24;100329.33;106065;1251;63026;-65
2023/07/13 09:08:25;;;;;;;1.90;1.30;;;;;;;35.51;22.36;100332.09;105988;1251;59644;-64
2023/07/13 09:11:05;;;;;;;2.40;1.20;;;;;;;35.34;22.52;100332.98;105880;1258;62549;-62
2023/07/13 09:13:42;;;;;;;1.80;1.40;;;;;;;35.16;22.84;100328.33;105790;1252;59637;-62
2023/07/13 09:16:10;;;;;;;2.30;1.50;;;;;;;35.16;22.88;100326.63;105923;1266;60249;-62
2023/07/13 09:18:40;;;;;;;2.00;1.60;;;;;;;35.10;22.59;100321.30;109314;1251;73102;-60
2023/07/13 09:21:11;;;;;;;;;;;;;;;35.12;23.22;100320.88;109277;1251;58311;-61
2023/07/13 09:23:39;;;;;;;3.70;1.30;;;;;;;35.37;23.82;100313.47;109268;1251;72758;-60
2023/07/13 09:26:22;;;;;;;1.90;1.50;;;;;;;35.62;23.35;100313.88;109101;1251;57378;-61
2023/07/13 09:28:57;;;;;;;2.40;1.60;;;;;;;35.78;22.38;100314.95;109382;1251;57516;-61
2023/07/13 09:31:39;;;;;;;2.20;1.50;;;;;;;35.66;22.44;100317.98;109362;1251;65104;-61
2023/07/13 09:34:09;;;;;;;1.90;1.50;;;;;;;35.45;22.88;100317.30;109395;1251;58558;-60
2023/07/13 09:36:37;;;;;;;1.90;1.40;;;;;;;35.31;22.77;100321.91;109359;1253;63873;-61
2023/07/13 09:39:12;;;;;;;2.70;1.80;;;;;;;35.18;23.17;100328.60;109289;1251;58000;-62
2023/07/13 09:41:46;;;;;;;2.70;1.30;;;;;;;35.16;22.91;100327.61;109192;1250;57563;-61
2023/07/13 09:44:15;;;;;;;3.30;1.50;;;;;;;35.19;22.59;100328.64;109384;1251;64518;-62
2023/07/13 09:46:52;;;;;;;2.30;1.40;;;;;;;35.20;22.01;100327.98;109361;1251;57443;-63
2023/07/13 09:49:25;;;;;;;2.80;1.60;;;;;;;35.13;22.88;100324.79;109277;1254;74845;-62
2023/07/13 09:52:02;;;;;;;3.10;1.60;;;;;;;35.23;23.03;100329.74;109355;1251;58149;-63
2023/07/13 09:54:32;;;;;;;2.00;1.10;;;;;;;35.37;22.26;100338.23;109353;1251;57823;-65
2023/07/13 09:57:00;;;;;;;3.30;1.50;;;;;;;35.43;21.73;100335.55;109338;1251;64467;-64
2023/07/13 09:59:36;;;;;;;3.90;2.40;;;;;;;35.47;22.08;100335.86;109320;1251;57846;-62
2023/07/13 10:02:24;;;;;;;3.60;2.00;;;;;;;35.44;22.69;100328.44;109373;1251;62578;-63
2023/07/13 10:04:58;;;;;;;2.50;1.70;;;;;;;35.37;22.96;100329.56;109367;1253;57993;-59
2023/07/13 10:07:26;;;;;;;2.20;1.30;;;;;;;35.15;23.33;100327.23;109353;1251;57345;-60
2023/07/13 10:09:58;;;;;;;2.70;1.80;;;;;;;35.02;24.17;100324.33;109358;1251;63368;-64
2023/07/13 10:12:25;;;;;;;1.70;1.20;;;;;;;35.04;24.06;100325.15;109333;1251;58587;-65
2023/07/13 10:14:58;;;;;;;2.30;1.40;;;;;;;35.13;23.74;100329.11;109374;1251;62621;-64
2023/07/13 10:17:46;;;;;;;3.10;1.60;;;;;;;35.11;22.65;100332.16;109264;1251;57751;-64
2023/07/13 10:20:14;;;;;;;2.40;1.50;;;;;;;35.08;23.02;100328.90;109306;1251;57500;-65
2023/07/13 10:23:06;;;;;;;2.30;1.30;;;;;;;35.15;22.86;100327.05;109343;1251;66457;-63
2023/07/13 10:25:37;;;;;;;4.40;2.60;;;;;;;35.16;22.54;100326.55;109298;1254;57814;-63
2023/07/13 10:28:21;;;;;;;2.40;1.40;;;;;;;35.14;22.22;100321.85;109358;1251;66228;-62
2023/07/13 10:30:49;;;;;;;2.00;1.40;;;;;;;35.10;22.41;100320.83;109380;1250;57846;-61
2023/07/13 10:33:17;;;;;;;2.40;1.60;;;;;;;34.94;21.92;100314.27;109358;1251;57414;-62
2023/07/13 10:35:48;;;;;;;2.10;1.50;;;;;;;34.72;22.56;100310.79;109361;1250;64225;-64
2023/07/13 10:38:21;;;;;;;5.00;2.20;;;;;;;34.71;22.46;100306.73;109373;1251;57852;-63
2023/07/13 10:40:59;;;;;;;2.10;1.30;;;;;;;34.82;21.95;100306.96;109438;1251;63734;-66
2023/07/13 10:43:39;;;;;;;3.10;1.40;;;;;;;34.83;22.18;100306.14;109353;1253;57418;-66
2023/07/13 10:46:10;;;;;;;2.40;1.40;;;;;;;34.74;22.42;100297.06;109448;1251;57953;-64
2023/07/13 10:48:38;;;;;;;3.70;2.00;;;;;;;34.61;22.58;100287.20;109320;1254;75198;-64
2023/07/13 10:51:06;;;;;;;3.40;1.80;;;;;;;34.60;22.63;100283.32;109449;1250;57937;-66
2023/07/13 10:53:36;;;;;;;2.20;1.50;;;;;;;34.56;22.23;100281.34;109379;1251;62499;-62
2023/07/13 10:56:25;;;;;;;1.70;1.20;;;;;;;34.43;22.82;100281.82;109407;1251;57844;-63
2023/07/13 10:59:08;;;;;;;8.20;2.00;;;;;;;34.37;22.94;100276.60;109382;1251;57248;-65
2023/07/13 11:01:48;;;;;;;3.10;1.70;;;;;;;34.27;22.71;100276.86;109437;1251;62943;-64
2023/07/13 11:04:16;;;;;;;2.90;1.20;;;;;;;34.18;22.63;100277.05;109415;1251;58432;-62
2023/07/13 11:06:44;;;;;;;10.00;2.40;;;;;;;34.09;23.07;100279.10;109356;1251;62550;-64
2023/07/13 11:09:32;;;;;;;2.80;1.70;;;;;;;34.02;23.32;100273.18;109364;1251;61895;-64
2023/07/13 11:12:00;;;;;;;3.20;1.80;;;;;;;33.99;23.36;100274.63;109384;1251;57585;-63
2023/07/13 11:14:29;;;;;;;4.60;3.50;;;;;;;34.02;23.54;100274.42;109256;1251;64774;-63
2023/07/13 11:16:57;;;;;;;3.40;1.70;;;;;;;34.06;23.06;100274.70;109383;1251;57878;-63
2023/07/13 11:19:27;;;;;;;4.00;3.60;;;;;;;34.04;23.24;100271.17;109153;1251;62638;-64
2023/07/13 11:22:05;;;;;;;3.40;2.30;;;;;;;34.06;22.84;100270.84;109366;1251;57902;-63
2023/07/13 11:25:00;;;;;;;2.60;1.70;;;;;;;34.11;23.10;100271.90;109339;1251;57293;-64
2023/07/13 11:27:36;;;;;;;1.50;1.10;;;;;;;34.25;22.78;100268.77;109330;1251;64704;-63
2023/07/13 11:30:19;;;;;;;2.00;1.50;;;;;;;34.36;22.62;100270.77;109341;1251;66910;-63
2023/07/13 11:32:50;;;;;;;3.70;1.60;;;;;;;34.45;22.91;100267.98;109453;1251;62517;-65
2023/07/13 11:35:25;;;;;;;3.80;1.60;;;;;;;34.53;23.34;100272.42;109392;1251;57478;-64
2023/07/13 11:37:53;;;;;;;3.30;1.60;;;;;;;34.65;23.40;100275.63;109299;1251;57475;-64
2023/07/13 11:40:22;;;;;;;2.70;1.70;;;;;;;34.65;23.55;100274.79;109428;1250;64131;-63
2023/07/13 11:42:50;;;;;;;3.10;1.90;;;;;;;34.59;22.96;100272.31;109254;1254;58424;-64
2023/07/13 11:45:22;;;;;;;3.50;1.80;;;;;;;34.43;23.07;100270.29;109378;1251;64840;-65
2023/07/13 11:48:05;;;;;;;3.90;2.00;;;;;;;34.31;24.43;100273.87;109419;1251;62265;-63
2023/07/13 11:50:32;;;;;;;7.50;1.80;;;;;;;34.29;24.00;100272.52;109450;1251;57464;-64
2023/07/13 11:53:00;;;;;;;2.20;1.60;;;;;;;34.27;23.49;100274.84;109307;1251;64755;-65
2023/07/13 11:55:28;;;;;;;3.80;2.60;;;;;;;34.15;23.89;100274.19;109368;1251;69885;-64
2023/07/13 11:58:00;;;;;;;2.30;1.60;;;;;;;34.07;24.02;100270.08;109237;1251;63797;-63
2023/07/13 12:00:30;;;;;;;6.80;1.60;;;;;;;33.96;23.96;100268.66;109247;1251;60004;-63
2023/07/13 12:03:02;;;;;;;2.80;1.70;;;;;;;33.84;24.32;100264.50;109228;1251;60938;-64
2023/07/13 12:05:32;;;;;;;2.30;1.50;;;;;;;33.75;24.57;100259.05;109371;1251;64651;-63